Time;durP1;ratioP1;P1;durP2;ratioP2;P2;SDS_P1;SDS_P2;PMS_P1;PMS_P2;Temp;Humidity;BMP_temperature;BMP_pressure;BME280_temperature;BME280_humidity;BME280_pressure;Samples;Min_cycle;Max_cycle;Signal;HPM_P1;HPM_P2
2023/11/17 00:00:23;;;;;;;2.78;2.00;;;6.60;99.90;;;;;;4972508;28;20086;-89
2023/11/17 00:02:48;;;;;;;4.13;2.05;;;6.60;99.90;;;;;;4963989;28;20046;-89
2023/11/17 00:05:19;;;;;;;5.55;2.53;;;6.40;99.90;;;;;;4979242;28;20481;-89
2023/11/17 00:07:45;;;;;;;4.13;2.30;;;6.60;99.90;;;;;;4962907;28;20086;-90
2023/11/17 00:10:13;;;;;;;4.30;2.38;;;6.60;99.90;;;;;;4974296;28;20026;-89
2023/11/17 00:12:41;;;;;;;5.88;2.60;;;6.60;99.90;;;;;;4960873;28;20081;-89
2023/11/17 00:15:11;;;;;;;2.63;2.15;;;6.70;99.90;;;;;;4961422;28;20031;-89
2023/11/17 00:17:37;;;;;;;4.05;1.95;;;6.70;99.90;;;;;;4966106;28;20033;-89
2023/11/17 00:20:03;;;;;;;4.00;2.60;;;6.60;99.90;;;;;;4977948;28;20035;-89
2023/11/17 00:22:29;;;;;;;4.38;2.35;;;6.50;99.90;;;;;;4978467;28;20023;-89
2023/11/17 00:24:55;;;;;;;6.07;2.47;;;6.70;99.90;;;;;;4963362;28;20019;-89
2023/11/17 00:27:20;;;;;;;4.57;2.05;;;6.60;99.90;;;;;;4951266;28;20035;-89
2023/11/17 00:29:48;;;;;;;4.30;2.40;;;6.50;99.90;;;;;;4985912;28;20393;-89
2023/11/17 00:32:14;;;;;;;2.92;2.33;;;6.50;99.90;;;;;;4971229;28;20031;-89
2023/11/17 00:34:40;;;;;;;6.25;2.80;;;6.50;99.90;;;;;;4966634;28;20556;-89
2023/11/17 00:37:11;;;;;;;4.43;2.70;;;6.50;99.90;;;;;;4976763;28;20041;-89
2023/11/17 00:39:39;;;;;;;7.07;3.80;;;6.40;99.90;;;;;;4965057;28;20126;-88
2023/11/17 00:42:07;;;;;;;7.68;3.65;;;6.40;99.90;;;;;;4966628;28;20681;-88
2023/11/17 00:44:35;;;;;;;4.65;2.90;;;6.40;99.90;;;;;;4958589;28;20563;-87
2023/11/17 00:47:06;;;;;;;;;;;6.40;99.90;;;;;;4966977;28;20497;-89
2023/11/17 00:49:34;;;;;;;4.22;2.83;;;6.50;99.90;;;;;;4965082;28;19957;-88
2023/11/17 00:52:07;;;;;;;4.53;2.65;;;6.40;99.90;;;;;;4977507;28;20043;-88
2023/11/17 00:54:42;;;;;;;5.57;2.67;;;6.40;99.90;;;;;;4980101;28;20042;-89
2023/11/17 00:57:12;;;;;;;9.10;2.92;;;6.30;99.90;;;;;;4983104;28;20054;-89
2023/11/17 00:59:38;;;;;;;6.60;3.10;;;6.40;99.90;;;;;;4963407;28;20445;-87
2023/11/17 01:02:08;;;;;;;5.75;2.60;;;6.40;99.90;;;;;;4977796;28;20124;-89
2023/11/17 01:04:36;;;;;;;4.53;2.70;;;6.50;99.90;;;;;;4953159;28;20552;-88
2023/11/17 01:07:01;;;;;;;6.57;2.85;;;6.40;99.90;;;;;;4969206;28;20101;-89
2023/11/17 01:09:28;;;;;;;3.97;2.40;;;6.40;99.90;;;;;;4973162;28;20490;-89
2023/11/17 01:11:56;;;;;;;4.63;2.65;;;6.30;99.90;;;;;;4967303;28;20034;-89
2023/11/17 01:14:22;;;;;;;9.00;3.00;;;6.10;99.90;;;;;;4965345;28;20034;-89
2023/11/17 01:16:48;;;;;;;4.35;2.97;;;6.20;99.90;;;;;;4970293;28;20513;-89
2023/11/17 01:19:14;;;;;;;4.47;2.58;;;6.10;99.90;;;;;;4968654;28;20053;-89
2023/11/17 01:21:39;;;;;;;9.70;2.85;;;6.20;99.90;;;;;;4967780;28;20405;-87
2023/11/17 01:24:08;;;;;;;5.57;2.70;;;6.30;99.90;;;;;;4986958;28;20027;-89
2023/11/17 01:26:34;;;;;;;4.43;2.53;;;6.20;99.90;;;;;;4966088;28;20169;-89
2023/11/17 01:29:00;;;;;;;6.78;2.60;;;6.30;99.90;;;;;;4970959;28;20038;-89
2023/11/17 01:31:26;;;;;;;4.53;2.50;;;6.20;99.90;;;;;;4972441;28;20035;-89
2023/11/17 01:33:52;;;;;;;4.68;2.88;;;6.30;99.90;;;;;;4970795;28;20108;-89
2023/11/17 01:36:18;;;;;;;7.65;3.15;;;6.30;99.90;;;;;;4969147;28;20520;-89
2023/11/17 01:38:44;;;;;;;5.25;2.95;;;6.20;99.90;;;;;;4964760;28;20038;-89
2023/11/17 01:41:10;;;;;;;3.97;2.55;;;6.20;99.90;;;;;;4964671;28;20031;-88
2023/11/17 01:43:39;;;;;;;5.53;3.05;;;6.10;99.90;;;;;;4960648;28;20049;-89
2023/11/17 01:46:07;;;;;;;6.05;2.75;;;6.10;99.90;;;;;;4970580;28;20034;-87
2023/11/17 01:48:37;;;;;;;4.80;2.97;;;6.00;99.90;;;;;;4966158;28;20027;-89
2023/11/17 01:51:07;;;;;;;8.02;3.17;;;5.90;99.90;;;;;;4972513;28;20027;-90
2023/11/17 01:53:41;;;;;;;4.13;3.10;;;5.90;99.90;;;;;;4958885;28;20027;-88
2023/11/17 01:56:09;;;;;;;4.20;2.70;;;6.10;99.90;;;;;;4963012;28;20037;-89
2023/11/17 01:58:35;;;;;;;5.07;3.03;;;6.20;99.90;;;;;;4984300;28;20034;-89
2023/11/17 02:01:10;;;;;;;4.82;3.00;;;6.30;99.90;;;;;;4980791;28;20053;-87
2023/11/17 02:03:39;;;;;;;5.25;3.20;;;6.40;99.90;;;;;;4977509;28;20034;-88
2023/11/17 02:06:44;;;;;;;5.28;2.65;;;6.20;99.90;;;;;;4967118;28;20383;-89
2023/11/17 02:09:36;;;;;;;5.07;3.08;;;6.10;99.90;;;;;;4965882;28;20382;-89
2023/11/17 02:12:23;;;;;;;5.25;2.80;;;6.00;99.90;;;;;;4979829;28;20034;-88
2023/11/17 02:14:52;;;;;;;4.22;2.83;;;5.80;99.90;;;;;;4982290;28;20027;-89
2023/11/17 02:17:28;;;;;;;7.80;3.40;;;6.00;99.90;;;;;;4977643;28;20031;-90
2023/11/17 02:20:11;;;;;;;6.97;3.50;;;5.90;99.90;;;;;;4970485;28;20030;-88
2023/11/17 02:22:48;;;;;;;4.43;3.25;;;5.70;99.90;;;;;;4982139;28;20023;-89
2023/11/17 02:25:34;;;;;;;9.48;3.33;;;5.70;99.90;;;;;;4962679;28;20085;-89
2023/11/17 02:28:20;;;;;;;9.40;3.63;;;5.70;99.90;;;;;;4957786;28;20042;-89
2023/11/17 02:30:55;;;;;;;8.05;4.20;;;5.80;99.90;;;;;;4965469;28;21025;-88
2023/11/17 02:33:26;;;;;;;7.15;3.67;;;5.80;99.90;;;;;;4979430;28;20744;-87
2023/11/17 02:35:55;;;;;;;6.80;3.75;;;5.90;99.90;;;;;;4952636;28;20583;-89
2023/11/17 02:38:21;;;;;;;5.60;3.47;;;5.80;99.90;;;;;;4966894;28;20054;-88
2023/11/17 02:40:47;;;;;;;6.75;3.63;;;5.90;99.90;;;;;;4963082;28;20037;-89
2023/11/17 02:43:22;;;;;;;5.53;3.05;;;5.90;99.90;;;;;;4982428;28;20109;-87
2023/11/17 02:45:52;;;;;;;5.45;3.00;;;5.80;99.90;;;;;;4957903;28;20030;-89
2023/11/17 02:48:21;;;;;;;6.28;3.45;;;5.80;99.90;;;;;;4978723;28;20834;-89
2023/11/17 02:51:17;;;;;;;7.22;3.22;;;5.80;99.90;;;;;;4965901;28;20037;-89
2023/11/17 02:53:49;;;;;;;8.55;3.70;;;5.80;99.90;;;;;;4959724;28;20034;-89
2023/11/17 02:56:19;;;;;;;4.88;3.33;;;5.70;99.90;;;;;;4961126;28;20031;-88
2023/11/17 02:58:46;;;;;;;5.68;3.83;;;5.80;99.90;;;;;;4980441;28;20533;-89
2023/11/17 03:01:15;;;;;;;6.63;3.60;;;5.80;99.90;;;;;;4975518;28;20118;-88
2023/11/17 03:03:43;;;;;;;7.80;3.85;;;5.80;99.90;;;;;;4982006;28;20034;-89
2023/11/17 03:06:09;;;;;;;;;;;5.80;99.90;;;;;;4961342;28;20027;-89
2023/11/17 03:08:37;;;;;;;6.03;3.55;;;5.80;99.90;;;;;;4968198;28;19910;-87
2023/11/17 03:11:05;;;;;;;6.20;3.53;;;5.70;99.90;;;;;;4975625;28;20078;-89
2023/11/17 03:13:32;;;;;;;8.05;4.07;;;5.80;99.90;;;;;;4964683;28;20038;-88
2023/11/17 03:16:00;;;;;;;6.43;3.83;;;5.90;99.90;;;;;;4966421;28;20036;-89
2023/11/17 03:18:38;;;;;;;8.55;3.95;;;6.00;99.90;;;;;;4970696;28;20038;-89
2023/11/17 03:21:04;;;;;;;11.38;4.22;;;6.00;99.90;;;;;;4976372;28;20027;-89
2023/11/17 03:23:32;;;;;;;5.90;3.63;;;6.10;99.90;;;;;;4975586;28;20401;-89
2023/11/17 03:25:59;;;;;;;8.10;4.70;;;5.90;99.90;;;;;;4967853;28;20031;-90
2023/11/17 03:28:28;;;;;;;6.90;4.13;;;5.90;99.90;;;;;;4959839;28;20047;-89
2023/11/17 03:30:55;;;;;;;9.00;3.95;;;5.80;99.90;;;;;;4978716;28;20026;-88
2023/11/17 03:33:21;;;;;;;5.15;3.42;;;5.80;99.90;;;;;;4975577;28;20031;-89
2023/11/17 03:35:47;;;;;;;8.55;4.57;;;5.80;99.90;;;;;;4968485;28;20030;-88
2023/11/17 03:38:13;;;;;;;6.05;3.88;;;5.80;99.90;;;;;;4977320;28;20529;-89
2023/11/17 03:40:48;;;;;;;9.48;4.55;;;5.70;99.90;;;;;;4965724;28;20023;-89
2023/11/17 03:43:18;;;;;;;7.03;4.32;;;5.70;99.90;;;;;;4959847;28;20505;-89
2023/11/17 03:45:48;;;;;;;10.02;4.68;;;5.80;99.90;;;;;;4968441;28;20041;-88
2023/11/17 03:48:16;;;;;;;7.00;4.53;;;6.00;99.90;;;;;;4975388;28;20074;-89
2023/11/17 03:50:44;;;;;;;7.78;4.45;;;6.00;99.90;;;;;;4965798;28;20030;-89
2023/11/17 03:53:10;;;;;;;6.68;4.32;;;6.00;99.90;;;;;;4982977;28;20030;-88
2023/11/17 03:55:36;;;;;;;8.48;4.75;;;6.10;99.90;;;;;;4975517;28;20053;-89
2023/11/17 03:58:02;;;;;;;7.43;4.72;;;6.10;99.90;;;;;;4968783;28;20030;-89
2023/11/17 04:00:28;;;;;;;9.50;4.97;;;6.20;99.90;;;;;;4967929;28;20089;-87
2023/11/17 04:02:57;;;;;;;8.63;5.05;;;6.20;99.90;;;;;;4965621;28;20477;-89
2023/11/17 04:05:22;;;;;;;8.98;4.93;;;6.10;99.90;;;;;;4968670;28;20117;-88
2023/11/17 04:07:50;;;;;;;8.23;5.13;;;6.30;99.90;;;;;;4969856;28;20549;-89
2023/11/17 04:10:18;;;;;;;8.27;4.60;;;6.20;99.90;;;;;;4967114;28;20453;-88
2023/11/17 04:12:45;;;;;;;9.95;4.93;;;6.20;99.90;;;;;;4966309;28;20228;-86
2023/11/17 04:15:13;;;;;;;12.65;5.38;;;6.10;99.90;;;;;;4964057;28;20054;-88
2023/11/17 04:17:39;;;;;;;8.50;4.88;;;6.00;99.90;;;;;;4969914;28;20632;-89
2023/11/17 04:20:08;;;;;;;8.82;5.35;;;6.10;99.90;;;;;;4978557;28;20069;-89
2023/11/17 04:22:34;;;;;;;9.88;5.38;;;6.00;99.90;;;;;;4975228;28;20107;-89
2023/11/17 04:25:03;;;;;;;7.85;4.85;;;6.00;99.90;;;;;;4963061;28;20148;-89
2023/11/17 04:27:29;;;;;;;9.15;5.35;;;6.00;99.90;;;;;;4964060;28;20501;-88
2023/11/17 04:29:55;;;;;;;8.20;5.03;;;6.10;99.90;;;;;;4975293;28;20035;-88
2023/11/17 04:32:20;;;;;;;12.20;5.32;;;6.00;99.90;;;;;;4953490;28;20057;-89
2023/11/17 04:34:46;;;;;;;8.80;5.25;;;6.30;99.90;;;;;;4974130;28;20482;-89
2023/11/17 04:37:14;;;;;;;10.35;5.28;;;6.30;99.90;;;;;;4969474;28;20027;-89
2023/11/17 04:39:39;;;;;;;8.20;4.65;;;6.20;99.90;;;;;;4966342;28;20030;-87
2023/11/17 04:42:05;;;;;;;9.77;5.20;;;6.30;99.90;;;;;;4978860;28;20034;-88
2023/11/17 04:44:33;;;;;;;9.02;4.10;;;6.40;99.90;;;;;;4969319;28;20085;-89
2023/11/17 04:47:04;;;;;;;13.57;5.03;;;6.20;99.90;;;;;;4982037;28;20034;-88
2023/11/17 04:49:32;;;;;;;8.77;4.70;;;6.30;99.90;;;;;;4958829;28;20089;-89
2023/11/17 04:52:00;;;;;;;9.18;4.97;;;6.30;99.90;;;;;;4968199;28;20436;-87
2023/11/17 04:54:28;;;;;;;9.73;5.07;;;6.40;99.90;;;;;;4956957;28;20870;-89
2023/11/17 04:56:55;;;;;;;;;;;6.40;99.90;;;;;;4961804;28;20125;-89
2023/11/17 04:59:21;;;;;;;6.88;4.45;;;6.10;99.90;;;;;;4974063;28;20396;-87
2023/11/17 05:01:51;;;;;;;9.90;5.45;;;6.20;99.90;;;;;;4974546;28;20605;-90
2023/11/17 05:04:17;;;;;;;9.75;4.72;;;6.20;99.90;;;;;;4966267;28;20085;-88
2023/11/17 05:06:44;;;;;;;7.80;4.65;;;6.20;99.90;;;;;;4967713;28;20410;-88
2023/11/17 05:09:13;;;;;;;10.45;5.07;;;6.30;99.90;;;;;;4978148;28;20046;-89
2023/11/17 05:11:44;;;;;;;13.32;5.38;;;6.30;99.90;;;;;;4967801;28;20022;-88
2023/11/17 05:14:12;;;;;;;11.85;4.97;;;6.30;99.90;;;;;;4968570;28;20425;-89
2023/11/17 05:16:42;;;;;;;16.35;5.18;;;6.30;99.90;;;;;;4968303;28;20038;-88
2023/11/17 05:19:11;;;;;;;9.05;5.18;;;6.30;99.90;;;;;;4967682;28;20027;-87
2023/11/17 05:21:38;;;;;;;;;;;6.20;99.90;;;;;;4961544;28;20041;-88
2023/11/17 05:24:08;;;;;;;8.73;4.97;;;6.20;99.90;;;;;;4967596;28;19910;-89
2023/11/17 05:26:36;;;;;;;7.18;4.72;;;6.30;99.90;;;;;;4959144;28;20027;-89
2023/11/17 05:29:02;;;;;;;;;;;6.30;99.90;;;;;;4966321;28;20121;-89
2023/11/17 05:31:28;;;;;;;9.25;4.68;;;6.30;99.90;;;;;;4961718;28;20068;-89
2023/11/17 05:33:57;;;;;;;7.68;5.20;;;6.40;99.90;;;;;;4953432;28;20038;-89
2023/11/17 05:36:25;;;;;;;8.57;4.78;;;6.40;99.90;;;;;;4964984;28;20031;-89
2023/11/17 05:38:51;;;;;;;10.88;4.65;;;6.30;99.90;;;;;;4963805;28;20052;-89
2023/11/17 05:41:22;;;;;;;9.35;5.00;;;6.20;99.90;;;;;;4963368;28;20050;-89
2023/11/17 05:43:49;;;;;;;9.35;4.55;;;6.30;99.90;;;;;;4969840;28;20022;-89
2023/11/17 05:46:15;;;;;;;8.20;5.00;;;6.40;99.90;;;;;;4981786;28;20027;-89
2023/11/17 05:48:40;;;;;;;11.98;5.40;;;6.40;99.90;;;;;;4984147;28;20041;-89
2023/11/17 05:51:09;;;;;;;9.65;5.10;;;6.40;99.90;;;;;;4969300;28;20034;-88
2023/11/17 05:53:38;;;;;;;9.35;4.75;;;6.30;99.90;;;;;;4984354;28;20092;-89
2023/11/17 05:56:06;;;;;;;11.13;4.88;;;6.40;99.90;;;;;;4966208;28;20027;-88
2023/11/17 05:58:32;;;;;;;9.05;4.22;;;6.30;99.90;;;;;;4980230;28;20887;-87
2023/11/17 06:00:57;;;;;;;8.77;4.28;;;6.50;99.90;;;;;;4981130;28;20043;-88
2023/11/17 06:03:27;;;;;;;8.05;4.60;;;6.50;99.90;;;;;;4965702;28;20070;-90
2023/11/17 06:05:55;;;;;;;10.38;4.70;;;6.40;99.90;;;;;;4951870;28;20512;-89
2023/11/17 06:08:31;;;;;;;11.85;6.13;;;6.50;99.90;;;;;;4964231;28;20478;-88
2023/11/17 06:11:00;;;;;;;9.05;5.35;;;6.50;99.90;;;;;;4971884;28;20117;-89
2023/11/17 06:13:26;;;;;;;13.00;5.82;;;6.60;99.90;;;;;;4980272;28;20038;-88
2023/11/17 06:15:52;;;;;;;8.50;5.50;;;6.50;99.90;;;;;;4980557;28;20026;-89
2023/11/17 06:18:20;;;;;;;10.68;5.15;;;6.50;99.90;;;;;;4962915;28;20183;-89
2023/11/17 06:20:49;;;;;;;9.50;5.28;;;6.40;99.90;;;;;;4960731;28;20435;-89
2023/11/17 06:23:15;;;;;;;6.47;4.10;;;6.50;99.90;;;;;;4981916;28;20085;-89
2023/11/17 06:25:41;;;;;;;8.88;5.13;;;6.50;99.90;;;;;;4965344;28;20604;-88
2023/11/17 06:28:09;;;;;;;8.10;4.68;;;6.40;99.90;;;;;;4967623;28;20038;-89
2023/11/17 06:30:35;;;;;;;8.82;5.57;;;6.50;99.90;;;;;;4969727;28;20085;-90
2023/11/17 06:33:03;;;;;;;9.43;4.97;;;6.50;99.90;;;;;;4984382;28;20030;-89
2023/11/17 06:35:30;;;;;;;9.77;5.22;;;6.50;99.90;;;;;;4985638;28;20109;-90
2023/11/17 06:37:57;;;;;;;8.25;5.05;;;6.40;99.90;;;;;;4964193;28;20047;-89
2023/11/17 06:40:25;;;;;;;8.80;5.18;;;6.50;99.90;;;;;;4962183;28;20030;-89
2023/11/17 06:42:55;;;;;;;9.15;4.57;;;6.40;99.90;;;;;;4963848;28;20022;-89
2023/11/17 06:45:21;;;;;;;8.57;4.97;;;6.30;99.90;;;;;;4967844;28;20026;-91
2023/11/17 06:47:51;;;;;;;9.75;5.13;;;6.40;99.90;;;;;;4977537;28;20069;-88
2023/11/17 06:50:17;;;;;;;8.85;4.93;;;6.40;99.90;;;;;;4950350;28;20039;-90
2023/11/17 06:52:44;;;;;;;9.75;5.00;;;6.50;99.90;;;;;;4968376;28;20037;-90
2023/11/17 06:55:10;;;;;;;9.15;4.85;;;6.50;99.90;;;;;;4976633;28;20055;-90
2023/11/17 06:57:36;;;;;;;9.40;5.47;;;6.50;99.90;;;;;;4959977;28;20038;-90
2023/11/17 07:00:07;;;;;;;8.55;5.13;;;6.40;99.90;;;;;;4980457;28;20425;-89
2023/11/17 07:02:33;;;;;;;12.98;5.13;;;6.40;99.90;;;;;;4966808;28;20031;-89
2023/11/17 07:05:01;;;;;;;11.63;5.00;;;6.30;99.90;;;;;;4963579;28;20119;-90
2023/11/17 07:07:29;;;;;;;11.85;4.70;;;6.40;99.90;;;;;;4978850;28;20034;-90
2023/11/17 07:09:54;;;;;;;12.68;5.38;;;6.50;99.90;;;;;;4960960;28;20038;-92
2023/11/17 07:12:20;;;;;;;8.60;5.22;;;6.60;99.90;;;;;;4956859;28;20027;-91
2023/11/17 07:14:48;;;;;;;7.63;4.88;;;6.60;99.90;;;;;;4974951;28;20108;-90
2023/11/17 07:17:15;;;;;;;12.25;5.00;;;6.60;99.90;;;;;;4981159;28;20019;-89
2023/11/17 07:19:45;;;;;;;8.88;4.32;;;6.60;99.90;;;;;;4980677;28;20370;-89
2023/11/17 07:22:10;;;;;;;9.60;4.85;;;6.50;99.90;;;;;;4972494;28;20031;-90
2023/11/17 07:24:36;;;;;;;9.30;5.20;;;6.70;99.90;;;;;;4978448;28;20034;-91
2023/11/17 07:27:02;;;;;;;8.65;4.20;;;6.60;99.90;;;;;;4963211;28;20026;-90
2023/11/17 07:29:31;;;;;;;11.55;5.15;;;6.80;99.90;;;;;;4955160;28;20408;-90
2023/11/17 07:32:00;;;;;;;14.35;4.45;;;6.70;99.90;;;;;;4966127;28;20042;-90
2023/11/17 07:34:28;;;;;;;8.57;4.60;;;6.70;99.90;;;;;;4964806;28;20033;-89
2023/11/17 07:36:54;;;;;;;;;;;6.70;99.90;;;;;;4933263;28;1336840;-90
2023/11/17 07:39:23;;;;;;;10.48;5.35;;;6.80;99.90;;;;;;4965102;28;19932;-90
2023/11/17 07:41:49;;;;;;;9.80;5.07;;;6.80;99.90;;;;;;4968627;28;20038;-88
2023/11/17 07:44:17;;;;;;;6.80;4.10;;;6.80;99.90;;;;;;4977027;28;20034;-90
2023/11/17 07:46:43;;;;;;;9.27;4.32;;;6.80;99.90;;;;;;4961465;28;20038;-91
2023/11/17 07:49:10;;;;;;;7.68;4.43;;;7.00;99.90;;;;;;4976050;28;20034;-91
2023/11/17 07:51:37;;;;;;;9.38;4.40;;;6.90;99.90;;;;;;4956805;28;20046;-90
2023/11/17 07:54:08;;;;;;;10.85;5.00;;;6.80;99.90;;;;;;4967077;28;20393;-90
2023/11/17 07:56:38;;;;;;;7.85;4.93;;;6.80;99.90;;;;;;4962478;28;20564;-90
2023/11/17 07:59:12;;;;;;;7.07;4.82;;;7.00;99.90;;;;;;4965752;28;20031;-90
2023/11/17 08:01:39;;;;;;;9.15;4.50;;;7.10;99.90;;;;;;4964985;28;20489;-91
2023/11/17 08:04:08;;;;;;;8.25;4.60;;;6.90;99.90;;;;;;4965013;28;20023;-91
2023/11/17 08:06:35;;;;;;;8.50;4.82;;;6.80;99.90;;;;;;4963484;28;20073;-90
2023/11/17 08:09:02;;;;;;;9.95;4.97;;;6.80;99.90;;;;;;4972847;28;20107;-91
2023/11/17 08:11:30;;;;;;;7.63;4.53;;;6.90;99.90;;;;;;4968552;28;20093;-90
2023/11/17 08:13:55;;;;;;;;;;;7.00;99.90;;;;;;4964393;28;20063;-91
2023/11/17 08:16:21;;;;;;;11.93;4.65;;;7.00;99.90;;;;;;4962755;28;20001;-91
2023/11/17 08:18:50;;;;;;;8.50;4.63;;;7.10;99.90;;;;;;4964566;28;20026;-91
2023/11/17 08:21:18;;;;;;;7.57;4.60;;;7.10;99.90;;;;;;4965921;28;20037;-91
2023/11/17 08:23:44;;;;;;;;;;;7.20;99.90;;;;;;4962527;28;20040;-91
2023/11/17 08:26:14;;;;;;;7.57;4.15;;;7.10;99.90;;;;;;4978498;28;19964;-89
2023/11/17 08:28:40;;;;;;;7.38;3.88;;;7.10;99.90;;;;;;4960749;28;20026;-90
2023/11/17 08:31:07;;;;;;;6.47;3.70;;;7.20;99.90;;;;;;4963377;28;20034;-91
2023/11/17 08:33:35;;;;;;;8.77;4.45;;;7.30;99.90;;;;;;4965789;28;20567;-91
2023/11/17 08:36:00;;;;;;;;;;;7.30;99.90;;;;;;4978022;28;20042;-91
2023/11/17 08:38:26;;;;;;;9.48;4.45;;;7.30;99.90;;;;;;4979977;28;19924;-90
2023/11/17 08:40:55;;;;;;;10.45;3.88;;;7.30;99.90;;;;;;4964230;28;20026;-89
2023/11/17 08:43:21;;;;;;;9.13;4.55;;;7.30;99.90;;;;;;4968054;28;20026;-90
2023/11/17 08:45:52;;;;;;;10.35;4.20;;;7.30;99.90;;;;;;4965060;28;20022;-91
2023/11/17 08:48:20;;;;;;;10.98;4.25;;;7.20;99.90;;;;;;4961593;28;20033;-90
2023/11/17 08:50:46;;;;;;;;;;;7.30;99.90;;;;;;4963228;28;20469;-90
2023/11/17 08:53:11;;;;;;;7.80;3.70;;;7.30;99.90;;;;;;4980192;28;19913;-89
2023/11/17 08:55:37;;;;;;;11.07;4.18;;;7.40;99.90;;;;;;4977243;28;20053;-92
2023/11/17 08:58:03;;;;;;;6.70;3.45;;;7.50;99.90;;;;;;4953734;28;20035;-92
2023/11/17 09:00:30;;;;;;;9.90;3.95;;;7.60;99.90;;;;;;4973912;28;20039;-91
2023/11/17 09:02:55;;;;;;;5.50;3.27;;;7.50;99.90;;;;;;4965090;28;20019;-91
2023/11/17 09:05:23;;;;;;;8.52;3.60;;;7.40;99.90;;;;;;4965516;28;20307;-92
2023/11/17 09:07:51;;;;;;;9.20;3.50;;;7.60;99.90;;;;;;4954351;28;20035;-91
2023/11/17 09:10:19;;;;;;;6.65;3.78;;;7.60;99.90;;;;;;4965404;28;20127;-91
2023/11/17 09:12:47;;;;;;;5.40;3.22;;;7.60;99.90;;;;;;4973144;28;20084;-91
2023/11/17 09:15:18;;;;;;;9.88;3.53;;;7.40;99.90;;;;;;4971622;28;20022;-90
2023/11/17 09:17:50;;;;;;;7.25;4.00;;;7.50;99.90;;;;;;4984798;28;20035;-90
2023/11/17 09:20:17;;;;;;;6.13;3.22;;;7.40;99.90;;;;;;4969194;28;20026;-90
2023/11/17 09:22:48;;;;;;;6.60;3.25;;;7.50;99.90;;;;;;4970630;28;20398;-90
2023/11/17 09:25:17;;;;;;;9.75;3.35;;;7.50;99.90;;;;;;4971474;28;20084;-89
2023/11/17 09:27:46;;;;;;;7.63;3.70;;;7.60;99.90;;;;;;4967256;28;20022;-93
2023/11/17 09:30:12;;;;;;;6.63;3.85;;;7.50;99.90;;;;;;4983630;28;20601;-90
2023/11/17 09:32:39;;;;;;;8.77;3.17;;;7.50;99.90;;;;;;4972905;28;20497;-90
2023/11/17 09:35:13;;;;;;;12.48;4.05;;;7.60;99.90;;;;;;4963435;28;22221;-91
2023/11/17 09:37:50;;;;;;;6.95;3.83;;;7.60;99.90;;;;;;4970022;28;20525;-91
2023/11/17 09:40:20;;;;;;;12.00;3.97;;;7.70;99.90;;;;;;4975305;28;20030;-89
2023/11/17 09:42:50;;;;;;;6.15;3.25;;;7.70;99.90;;;;;;4967681;28;20026;-90
2023/11/17 09:45:26;;;;;;;5.80;3.28;;;7.60;99.90;;;;;;4965780;28;20497;-89
2023/11/17 09:48:01;;;;;;;8.43;3.60;;;7.60;99.90;;;;;;4949978;28;20544;-90
2023/11/17 09:50:28;;;;;;;5.72;3.35;;;7.60;99.90;;;;;;4963433;28;20030;-91
2023/11/17 09:52:57;;;;;;;8.60;2.93;;;7.70;99.90;;;;;;4951384;28;20625;-92
2023/11/17 09:55:30;;;;;;;8.50;3.40;;;7.70;99.90;;;;;;4964941;28;20035;-90
2023/11/17 09:58:05;;;;;;;8.48;3.03;;;7.80;99.90;;;;;;4955103;28;20038;-90
2023/11/17 10:00:33;;;;;;;5.50;3.35;;;7.70;99.90;;;;;;4970455;28;20081;-90
2023/11/17 10:03:01;;;;;;;7.53;2.92;;;7.70;99.90;;;;;;4964855;28;20034;-91
2023/11/17 10:05:29;;;;;;;7.57;3.00;;;7.90;99.90;;;;;;4971032;28;20030;-90
2023/11/17 10:08:08;;;;;;;6.63;3.38;;;7.80;99.90;;;;;;4969468;28;20485;-90
2023/11/17 10:10:55;;;;;;;5.63;2.60;;;7.80;99.90;;;;;;4952730;28;20460;-91
2023/11/17 10:13:30;;;;;;;8.95;3.05;;;7.90;99.90;;;;;;4954048;28;20105;-91
2023/11/17 10:15:58;;;;;;;6.60;3.03;;;8.00;99.90;;;;;;4968321;28;20026;-91
2023/11/17 10:18:29;;;;;;;10.20;2.90;;;8.00;99.90;;;;;;4967183;28;20026;-91
2023/11/17 10:20:58;;;;;;;9.07;3.15;;;8.00;99.90;;;;;;4971191;28;20034;-89
2023/11/17 10:23:25;;;;;;;5.00;2.78;;;7.90;99.90;;;;;;4981143;28;20023;-91
2023/11/17 10:25:54;;;;;;;5.05;2.85;;;8.00;99.90;;;;;;4969450;28;20029;-91
2023/11/17 10:28:24;;;;;;;5.45;2.95;;;8.00;99.90;;;;;;4967674;28;20023;-91
2023/11/17 10:30:59;;;;;;;11.00;2.95;;;8.10;99.90;;;;;;4980775;28;20027;-91
2023/11/17 10:33:29;;;;;;;9.73;2.80;;;8.10;99.90;;;;;;4956001;28;20030;-90
2023/11/17 10:36:12;;;;;;;7.38;3.33;;;8.10;99.90;;;;;;4964502;28;20121;-88
2023/11/17 10:38:45;;;;;;;7.50;3.08;;;8.10;99.90;;;;;;4981034;28;20121;-91
2023/11/17 10:41:19;;;;;;;7.78;3.30;;;8.00;99.90;;;;;;4976817;28;20034;-91
2023/11/17 10:43:53;;;;;;;5.13;2.72;;;8.00;99.90;;;;;;4968358;28;20092;-90
2023/11/17 10:46:31;;;;;;;5.57;2.63;;;8.20;99.90;;;;;;4975104;28;20026;-90
2023/11/17 10:49:04;;;;;;;18.70;3.58;;;8.10;99.90;;;;;;4976598;28;20101;-90
2023/11/17 10:51:31;;;;;;;9.07;2.90;;;8.10;99.90;;;;;;4965618;28;20096;-90
2023/11/17 10:54:12;;;;;;;7.00;3.17;;;8.10;99.90;;;;;;4962680;28;20035;-89
2023/11/17 10:56:40;;;;;;;9.52;2.92;;;8.30;99.90;;;;;;4961980;28;20061;-89
2023/11/17 10:59:15;;;;;;;5.93;2.80;;;8.30;99.90;;;;;;4957592;28;20033;-89
2023/11/17 11:01:41;;;;;;;7.47;3.10;;;8.40;99.90;;;;;;4959940;28;20034;-89
2023/11/17 11:04:09;;;;;;;7.20;2.60;;;8.40;99.90;;;;;;4973910;28;20093;-89
2023/11/17 11:06:38;;;;;;;;;;;8.40;99.90;;;;;;4966775;28;20031;-90
2023/11/17 11:09:06;;;;;;;9.65;3.30;;;8.50;99.90;;;;;;4977513;28;19910;-89
2023/11/17 11:11:33;;;;;;;6.93;2.65;;;8.60;99.90;;;;;;4963238;28;20027;-89
2023/11/17 11:14:06;;;;;;;6.55;3.22;;;8.50;99.90;;;;;;4953221;28;20089;-90
2023/11/17 11:16:32;;;;;;;5.85;2.95;;;8.60;99.90;;;;;;4965902;28;20030;-90
2023/11/17 11:19:02;;;;;;;5.50;2.33;;;8.70;99.90;;;;;;4978415;28;20069;-90
2023/11/17 11:21:33;;;;;;;5.28;2.40;;;8.80;99.90;;;;;;4966349;28;20035;-92
2023/11/17 11:24:01;;;;;;;5.05;2.63;;;8.90;99.90;;;;;;4980323;28;20054;-89
2023/11/17 11:26:28;;;;;;;4.30;2.67;;;8.90;99.90;;;;;;4963139;28;20917;-90
2023/11/17 11:28:54;;;;;;;7.55;2.75;;;8.80;99.90;;;;;;4949351;28;20621;-90
2023/11/17 11:31:22;;;;;;;4.85;2.00;;;8.90;99.90;;;;;;4960591;28;20042;-88
2023/11/17 11:33:54;;;;;;;3.97;2.53;;;8.90;99.90;;;;;;4979054;28;20064;-89
2023/11/17 11:36:20;;;;;;;6.57;2.40;;;8.90;99.90;;;;;;4952330;28;20038;-89
2023/11/17 11:38:49;;;;;;;6.03;2.90;;;9.00;99.90;;;;;;4957638;28;20037;-88
2023/11/17 11:41:22;;;;;;;5.03;2.70;;;9.00;99.90;;;;;;4975758;28;20041;-89
2023/11/17 11:43:49;;;;;;;5.47;2.55;;;9.20;99.90;;;;;;4975900;28;20398;-90
2023/11/17 11:46:19;;;;;;;3.70;2.17;;;9.10;99.90;;;;;;4981137;28;20494;-89
2023/11/17 11:48:49;;;;;;;6.32;2.88;;;9.10;99.90;;;;;;4965163;28;20031;-88
2023/11/17 11:51:16;;;;;;;7.22;2.63;;;9.20;99.90;;;;;;4959795;28;20129;-88
2023/11/17 11:53:48;;;;;;;5.55;2.90;;;9.00;99.90;;;;;;4982765;28;20030;-89
2023/11/17 11:56:14;;;;;;;7.47;2.80;;;9.00;99.90;;;;;;4978853;28;20110;-88
2023/11/17 11:58:45;;;;;;;5.60;2.53;;;9.10;99.90;;;;;;4952994;28;20131;-88
2023/11/17 12:01:16;;;;;;;4.18;2.63;;;9.10;99.90;;;;;;4966358;28;20019;-89
2023/11/17 12:03:50;;;;;;;8.65;2.40;;;9.10;99.90;;;;;;4966818;28;20026;-89
2023/11/17 12:06:23;;;;;;;3.90;2.15;;;9.20;99.90;;;;;;4962835;28;20031;-88
2023/11/17 12:08:58;;;;;;;8.18;2.38;;;9.30;99.90;;;;;;4958787;28;20058;-86
2023/11/17 12:11:32;;;;;;;5.45;2.10;;;9.30;99.90;;;;;;4966473;28;20154;-88
2023/11/17 12:13:58;;;;;;;5.82;2.47;;;9.40;99.90;;;;;;4960394;28;20033;-89
2023/11/17 12:16:30;;;;;;;5.03;2.40;;;9.40;99.90;;;;;;4976468;28;20039;-88
2023/11/17 12:18:58;;;;;;;7.35;2.60;;;9.40;99.90;;;;;;4967544;28;20030;-89
2023/11/17 12:21:25;;;;;;;4.25;2.60;;;9.40;99.90;;;;;;4981744;28;20038;-88
2023/11/17 12:23:57;;;;;;;5.07;2.65;;;9.40;99.90;;;;;;4965177;28;20582;-89
2023/11/17 12:26:30;;;;;;;4.70;2.60;;;9.40;99.90;;;;;;4965422;28;20030;-89
2023/11/17 12:28:56;;;;;;;3.83;2.33;;;9.40;99.90;;;;;;4963610;28;20030;-89
2023/11/17 12:31:23;;;;;;;9.65;2.33;;;9.40;99.90;;;;;;4982178;28;20076;-89
2023/11/17 12:33:54;;;;;;;4.68;2.80;;;9.40;99.90;;;;;;4967118;28;20177;-90
2023/11/17 12:36:24;;;;;;;9.05;2.95;;;9.30;99.90;;;;;;4975803;28;20034;-91
2023/11/17 12:38:57;;;;;;;9.80;3.22;;;9.40;99.90;;;;;;4962493;28;20121;-90
2023/11/17 12:41:25;;;;;;;4.35;2.70;;;9.30;99.90;;;;;;4977087;28;20034;-90
2023/11/17 12:43:51;;;;;;;4.50;2.50;;;9.40;99.90;;;;;;4967637;28;20042;-90
2023/11/17 12:46:17;;;;;;;4.85;2.80;;;9.30;99.90;;;;;;4958633;28;20081;-89
2023/11/17 12:48:45;;;;;;;6.68;2.63;;;9.30;99.90;;;;;;4963860;28;20026;-89
2023/11/17 12:51:29;;;;;;;3.97;2.28;;;9.20;99.90;;;;;;4980845;28;20401;-89
2023/11/17 12:54:00;;;;;;;5.10;2.67;;;9.20;99.90;;;;;;4963717;28;20073;-88
2023/11/17 12:56:26;;;;;;;3.42;2.30;;;9.10;99.90;;;;;;4962266;28;20039;-90
2023/11/17 12:58:55;;;;;;;3.83;2.60;;;9.10;99.90;;;;;;4971393;28;20109;-90
2023/11/17 13:01:23;;;;;;;3.15;2.40;;;9.20;99.90;;;;;;4970254;28;20037;-89
2023/11/17 13:03:57;;;;;;;7.18;2.80;;;9.10;99.90;;;;;;4967671;28;20038;-90
2023/11/17 13:06:28;;;;;;;11.55;3.00;;;9.20;99.90;;;;;;4983561;28;20091;-88